createdAt,value
2023-02-06T00:02:23.234Z,65.88
2023-02-06T00:07:54.875Z,65.89
2023-02-06T00:13:26.352Z,66.22
2023-02-06T00:18:58.574Z,66.12
2023-02-06T00:24:29.512Z,65.98
2023-02-06T00:30:00.427Z,65.50
2023-02-06T00:35:31.574Z,65.75
2023-02-06T00:41:02.976Z,65.57
2023-02-06T00:46:34.916Z,65.83
2023-02-06T00:52:05.949Z,65.83
2023-02-06T00:57:37.007Z,65.67
2023-02-06T01:03:08.419Z,65.94
2023-02-06T01:08:40.313Z,65.62
2023-02-06T01:14:11.387Z,65.51
2023-02-06T01:19:42.648Z,65.82
2023-02-06T01:25:14.817Z,65.39
2023-02-06T01:30:46.302Z,65.92
2023-02-06T01:36:19.015Z,65.51
2023-02-06T01:41:51.250Z,65.42
2023-02-06T01:47:22.442Z,65.41
2023-02-06T01:52:53.870Z,65.37
2023-02-06T01:58:29.937Z,65.39
2023-02-06T02:04:09.421Z,65.66
2023-02-06T02:09:40.493Z,65.44
2023-02-06T02:15:12.087Z,65.22
2023-02-06T02:21:12.275Z,65.56
2023-02-06T02:27:07.824Z,65.56
2023-02-06T02:32:45.181Z,65.35
2023-02-06T02:38:33.345Z,65.42
2023-02-06T02:44:09.187Z,65.45
2023-02-06T02:49:41.886Z,65.33
2023-02-06T02:55:22.718Z,65.84
2023-02-06T03:01:03.030Z,65.41
2023-02-06T03:06:50.171Z,65.35
2023-02-06T03:12:44.877Z,65.38
2023-02-06T03:18:24.344Z,65.23
2023-02-06T03:23:59.680Z,65.00
2023-02-06T03:29:32.701Z,65.24
2023-02-06T03:35:17.586Z,65.13
2023-02-06T03:40:49.300Z,65.25
2023-02-06T03:46:20.528Z,65.10
2023-02-06T03:52:03.462Z,65.17
2023-02-06T03:57:35.956Z,65.15
2023-02-06T04:03:07.984Z,65.23
2023-02-06T04:08:39.494Z,65.64
2023-02-06T04:14:10.334Z,65.29
2023-02-06T04:19:42.320Z,65.02
2023-02-06T04:25:13.901Z,65.19
2023-02-06T04:30:45.324Z,65.39
2023-02-06T04:36:16.482Z,65.45
2023-02-06T04:41:47.528Z,64.98
2023-02-06T04:47:18.929Z,65.58
2023-02-06T04:52:49.942Z,65.29
2023-02-06T04:58:21.377Z,65.19
2023-02-06T05:03:52.430Z,65.25
2023-02-06T05:09:23.445Z,65.27
2023-02-06T05:14:55.691Z,64.92
2023-02-06T05:20:51.547Z,65.35
2023-02-06T05:26:23.080Z,65.17
2023-02-06T05:31:54.520Z,65.25
2023-02-06T05:37:25.580Z,65.33
2023-02-06T05:42:58.422Z,65.24
2023-02-06T05:48:30.766Z,65.08
2023-02-06T05:54:01.834Z,65.30
2023-02-06T05:59:33.057Z,65.03
2023-02-06T06:05:04.495Z,65.22
2023-02-06T06:10:36.106Z,65.09
2023-02-06T06:16:07.406Z,65.39
2023-02-06T06:21:38.589Z,64.91
2023-02-06T06:27:11.036Z,64.99
2023-02-06T06:32:42.312Z,64.84
2023-02-06T06:38:13.781Z,65.13
2023-02-06T06:43:45.233Z,65.55
2023-02-06T06:49:16.543Z,65.02
2023-02-06T06:54:47.586Z,65.10
2023-02-06T07:00:18.879Z,65.12
2023-02-06T07:05:51.268Z,64.91
2023-02-06T07:11:26.306Z,65.94
2023-02-06T07:16:57.958Z,65.44
2023-02-06T07:22:29.596Z,65.16
2023-02-06T07:28:01.434Z,64.90
2023-02-06T07:33:33.291Z,65.18
2023-02-06T07:39:04.915Z,65.67
2023-02-06T07:44:36.058Z,65.13
2023-02-06T07:50:07.388Z,65.16
2023-02-06T07:55:38.855Z,65.58
2023-02-06T08:01:11.096Z,65.54
2023-02-06T08:06:43.549Z,65.27
2023-02-06T08:12:14.647Z,65.35
2023-02-06T08:17:45.530Z,65.28
2023-02-06T08:23:16.973Z,65.56
2023-02-06T08:28:49.558Z,65.50
2023-02-06T08:34:20.825Z,65.73
2023-02-06T08:39:51.774Z,66.30
2023-02-06T08:45:23.173Z,65.67
2023-02-06T08:51:08.604Z,65.95
2023-02-06T08:56:39.888Z,66.35
2023-02-06T09:02:12.201Z,65.79
2023-02-06T09:07:43.609Z,65.97
2023-02-06T09:13:15.667Z,65.58
2023-02-06T09:18:47.986Z,65.87
2023-02-06T09:24:19.240Z,65.87
2023-02-06T09:29:50.796Z,66.19
2023-02-06T09:35:21.830Z,66.49
2023-02-06T09:40:55.334Z,66.81
2023-02-06T09:46:31.572Z,66.32
2023-02-06T09:52:44.290Z,66.46
2023-02-06T09:58:33.887Z,66.23
2023-02-06T10:04:31.853Z,66.62
2023-02-06T10:10:07.149Z,66.56
2023-02-06T10:15:46.512Z,67.10
2023-02-06T10:21:41.513Z,66.93
2023-02-06T10:27:14.205Z,67.19
2023-02-06T10:32:51.698Z,66.95
2023-02-06T10:38:43.588Z,67.21
2023-02-06T10:44:26.879Z,66.59
2023-02-06T10:50:04.939Z,66.69
2023-02-06T10:55:50.434Z,66.84
2023-02-06T11:01:26.493Z,66.84
2023-02-06T11:07:02.379Z,66.85
2023-02-06T11:12:38.506Z,66.78
2023-02-06T11:18:15.074Z,66.71
2023-02-06T11:23:48.120Z,66.44
2023-02-06T11:29:26.085Z,66.76
2023-02-06T11:34:59.636Z,66.54
2023-02-06T11:40:31.011Z,66.71
2023-02-06T11:46:25.608Z,66.68
2023-02-06T11:52:00.146Z,66.76
2023-02-06T11:57:34.123Z,66.79
2023-02-06T12:03:25.102Z,66.87
2023-02-06T12:08:59.686Z,66.96
2023-02-06T12:14:49.946Z,66.92
2023-02-06T12:20:30.208Z,66.93
2023-02-06T12:26:05.660Z,67.11
2023-02-06T12:31:50.773Z,67.15
2023-02-06T12:37:22.450Z,66.91
2023-02-06T12:43:04.345Z,67.29
2023-02-06T12:48:44.493Z,67.18
2023-02-06T12:54:21.549Z,67.36
2023-02-06T13:00:23.811Z,67.41
2023-02-06T13:06:02.061Z,67.54
2023-02-06T13:11:40.719Z,67.76
2023-02-06T13:17:18.686Z,67.52
2023-02-06T13:22:55.217Z,67.94
2023-02-06T13:28:26.587Z,67.65
2023-02-06T13:34:00.592Z,67.98
2023-02-06T13:39:32.547Z,67.95
2023-02-06T13:45:05.312Z,67.72
2023-02-06T13:50:51.304Z,67.86
2023-02-06T13:56:52.365Z,68.03
2023-02-06T14:02:36.111Z,68.13
2023-02-06T14:08:13.723Z,67.62
2023-02-06T14:14:17.406Z,67.95
2023-02-06T14:19:59.631Z,68.22
2023-02-06T14:25:55.349Z,67.94
2023-02-06T14:32:20.844Z,67.81
2023-02-06T14:38:10.838Z,67.44
2023-02-06T14:43:44.200Z,67.71
2023-02-06T14:49:19.086Z,67.43
2023-02-06T14:54:50.625Z,67.70
2023-02-06T15:00:22.364Z,67.95
2023-02-06T15:06:10.262Z,68.06
2023-02-06T15:11:42.214Z,68.05
2023-02-06T15:17:20.288Z,67.95
2023-02-06T15:22:52.445Z,68.10
2023-02-06T15:28:28.166Z,68.31
2023-02-06T15:34:01.039Z,68.13
2023-02-06T15:39:32.957Z,68.00
2023-02-06T15:45:06.050Z,68.40
2023-02-06T15:50:37.722Z,68.12
2023-02-06T15:56:28.747Z,68.45
2023-02-06T16:02:00.408Z,68.17
2023-02-06T16:07:35.955Z,68.45
2023-02-06T16:13:14.871Z,68.90
2023-02-06T16:18:46.750Z,68.60
2023-02-06T16:24:28.926Z,69.05
2023-02-06T16:29:59.936Z,69.13
2023-02-06T16:35:31.123Z,68.82
2023-02-06T16:41:02.554Z,68.91
2023-02-06T16:46:34.185Z,68.95
2023-02-06T16:52:05.995Z,69.19
2023-02-06T16:57:41.495Z,68.77
2023-02-06T17:03:14.301Z,68.73
2023-02-06T17:08:45.820Z,68.94
2023-02-06T17:14:16.836Z,68.47
2023-02-06T17:19:49.323Z,68.53
2023-02-06T17:25:20.582Z,68.61
2023-02-06T17:30:52.292Z,68.49
2023-02-06T17:36:29.692Z,68.67
2023-02-06T17:42:01.051Z,68.32
2023-02-06T17:47:32.190Z,68.51
2023-02-06T17:53:06.039Z,68.46
2023-02-06T17:58:37.319Z,68.82
2023-02-06T18:04:13.042Z,68.47
2023-02-06T18:09:44.582Z,68.18
2023-02-06T18:15:16.553Z,67.87
2023-02-06T18:20:47.520Z,68.41
2023-02-06T18:26:19.240Z,68.06
2023-02-06T18:31:50.592Z,68.29
2023-02-06T18:37:22.161Z,68.08
2023-02-06T18:42:54.709Z,68.10
2023-02-06T18:48:25.891Z,67.83
2023-02-06T18:53:58.614Z,67.86
2023-02-06T18:59:29.706Z,67.89
2023-02-06T19:05:00.850Z,67.93
2023-02-06T19:10:32.073Z,67.59
2023-02-06T19:16:12.739Z,68.07
2023-02-06T19:21:44.306Z,67.83
2023-02-06T19:27:15.765Z,67.83
2023-02-06T19:32:49.132Z,66.95
2023-02-06T19:38:20.365Z,67.50
2023-02-06T19:43:53.906Z,67.45
2023-02-06T19:49:26.054Z,67.62
2023-02-06T19:54:57.178Z,67.74
2023-02-06T20:00:28.626Z,67.42
2023-02-06T20:06:08.113Z,67.33
2023-02-06T20:11:39.840Z,67.17
2023-02-06T20:17:11.271Z,66.70
2023-02-06T20:22:42.268Z,67.10
2023-02-06T20:28:13.624Z,67.15
2023-02-06T20:33:45.551Z,67.15
2023-02-06T20:39:17.000Z,66.80
2023-02-06T20:44:50.456Z,67.33
2023-02-06T20:50:21.813Z,66.95
2023-02-06T20:55:53.317Z,67.29
2023-02-06T21:01:26.277Z,66.73
2023-02-06T21:06:57.813Z,66.80
2023-02-06T21:12:28.863Z,66.77
2023-02-06T21:17:59.797Z,66.85
2023-02-06T21:23:30.821Z,66.92
2023-02-06T21:29:02.796Z,66.76
2023-02-06T21:34:34.129Z,66.58
2023-02-06T21:40:06.084Z,66.72
2023-02-06T21:45:40.013Z,66.76
2023-02-06T21:51:14.858Z,67.04
2023-02-06T21:56:45.973Z,66.78
2023-02-06T22:02:17.157Z,66.69
2023-02-06T22:07:48.255Z,66.90
2023-02-06T22:13:19.296Z,66.57
2023-02-06T22:18:51.099Z,66.49
2023-02-06T22:24:22.549Z,66.57
2023-02-06T22:29:53.672Z,66.29
2023-02-06T22:35:25.493Z,66.87
2023-02-06T22:41:04.948Z,66.46
2023-02-06T22:46:38.218Z,66.23
2023-02-06T22:52:28.189Z,66.23
2023-02-06T22:57:59.419Z,66.36
2023-02-06T23:03:30.784Z,66.27
2023-02-06T23:09:04.289Z,66.29
2023-02-06T23:14:35.381Z,65.97
2023-02-06T23:20:09.438Z,66.23
2023-02-06T23:25:44.796Z,66.19
2023-02-06T23:31:16.588Z,66.09
2023-02-06T23:36:47.638Z,66.05
2023-02-06T23:42:18.743Z,66.22
2023-02-06T23:47:51.246Z,66.09
2023-02-06T23:53:22.641Z,65.97
2023-02-06T23:58:54.994Z,65.95
